Ava, MO (65608)

12:32 PM CST on December 04, 2016 (GMT -0600)
Spring Creek twp | | Change Station

Elev 1220 ft 36.89 °N, 92.67 °W | Updated 1 minute ago

Overcast
Overcast
41.7 °F
Feels Like 42 °F
N
3.0
Wind Variable Wind from NNW

Today
High -- | Low -- °F
--% Chance of Precip.
Yesterday
High -- | Low -- °F
Precip. -- in
Pressure 30.01 in
Visibility 10.0 miles
Clouds Mostly Cloudy 500 ft
Overcast 1100 ft
Windchill 42 °F
Dew Point 41 °F
Humidity 98%
Rainfall 0.00 in
Snow Depth Not available.
7:08 AM 4:53 PM
Waxing Crescent, 24% visible
METAR KBPK 041753Z AUTO 26004KT 10SM BKN005 OVC011 05/04 A2999 RMK AO2 RAB1655E31 SLP160 P0001 60001 T00500044 10050 20033 58010
Pressure 30.01 in
Visibility 10.0 miles
Clouds Mostly Cloudy 500 ft
Overcast 1100 ft
Windchill 42 °F
Dew Point 41 °F
Humidity 98%
Rainfall 0.00 in
Snow Depth Not available.
7:08 AM 4:53 PM
Waxing Crescent, 24% visible
METAR KBPK 041753Z AUTO 26004KT 10SM BKN005 OVC011 05/04 A2999 RMK AO2 RAB1655E31 SLP160 P0001 60001 T00500044 10050 20033 58010

10-Day Weather Forecast

Almanac

Astronomy

Dec. 04, 2016 Rise Set
Actual Time
Civil Twilight
Nautical Twilight
Astronomical Twilight
Moon
Length of Visible Light
Length of Day
Tomorrow will be .
, % of the Moon is Illuminated

Today's Extremes

State Highs State Lows

Community

WunderPhotos

Upload Photos

1,955,640 photos uploaded!

WunderBlog® & News

Nearby

Air Quality

  Air Quality AQ Index Pollutant
Not available.

Snow Depth

Station Depth Elevation

Earthquake Activity

City Distance Mag. Time & Date
Minimum magnitude displayed is 2.5.

Coastal Water Temperatures

Place Temperature

Stations

Nearby Weather Stations

Station Location Temp. Windchill Dew Point Humidity Wind Precip. Elev Updated Type
                   

Watches & Warnings

There are currently no watches in effect.